sensor_id;sensor_type;location;lat;lon;timestamp;pressure;altitude;pressure_sealevel;temperature;humidity
62418;BME280;48456;54.242;10.280;2023-03-23T00:02:19;100041.00;;;8.67;100.00
62418;BME280;48456;54.242;10.280;2023-03-23T00:04:44;100055.09;;;8.64;100.00
62418;BME280;48456;54.242;10.280;2023-03-23T00:07:10;100055.97;;;8.69;100.00
62418;BME280;48456;54.242;10.280;2023-03-23T00:09:37;100050.63;;;8.74;100.00
62418;BME280;48456;54.242;10.280;2023-03-23T00:12:07;100055.06;;;8.67;100.00
62418;BME280;48456;54.242;10.280;2023-03-23T00:14:32;100048.03;;;8.69;100.00
62418;BME280;48456;54.242;10.280;2023-03-23T00:17:09;100039.22;;;8.72;100.00
62418;BME280;48456;54.242;10.280;2023-03-23T00:19:36;100033.06;;;8.70;100.00
62418;BME280;48456;54.242;10.280;2023-03-23T00:22:11;100035.69;;;8.73;100.00
62418;BME280;48456;54.242;10.280;2023-03-23T00:24:36;100034.81;;;8.71;100.00
62418;BME280;48456;54.242;10.280;2023-03-23T00:27:02;100019.91;;;8.70;100.00
62418;BME280;48456;54.242;10.280;2023-03-23T00:29:28;100027.81;;;8.68;100.00
62418;BME280;48456;54.242;10.280;2023-03-23T00:31:53;100020.78;;;8.70;100.00
62418;BME280;48456;54.242;10.280;2023-03-23T00:34:22;100026.09;;;8.64;100.00
62418;BME280;48456;54.242;10.280;2023-03-23T00:36:50;100021.72;;;8.65;100.00
62418;BME280;48456;54.242;10.280;2023-03-23T00:39:16;100033.09;;;8.67;100.00
62418;BME280;48456;54.242;10.280;2023-03-23T00:41:43;100030.47;;;8.67;100.00
62418;BME280;48456;54.242;10.280;2023-03-23T00:44:08;100030.47;;;8.67;100.00
62418;BME280;48456;54.242;10.280;2023-03-23T00:46:34;100026.09;;;8.64;100.00
62418;BME280;48456;54.242;10.280;2023-03-23T00:48:59;100010.28;;;8.64;100.00
62418;BME280;48456;54.242;10.280;2023-03-23T00:51:25;100014.72;;;8.59;100.00
62418;BME280;48456;54.242;10.280;2023-03-23T00:53:50;100020.88;;;8.58;100.00
62418;BME280;48456;54.242;10.280;2023-03-23T00:56:16;100029.69;;;8.57;100.00
62418;BME280;48456;54.242;10.280;2023-03-23T00:58:41;100020.06;;;8.54;100.00
62418;BME280;48456;54.242;10.280;2023-03-23T01:01:07;100030.56;;;8.56;100.00
62418;BME280;48456;54.242;10.280;2023-03-23T01:03:32;100027.91;;;8.56;100.00
62418;BME280;48456;54.242;10.280;2023-03-23T01:06:03;100022.66;;;8.56;100.00
62418;BME280;48456;54.242;10.280;2023-03-23T01:08:29;100019.16;;;8.57;100.00
62418;BME280;48456;54.242;10.280;2023-03-23T01:11:01;100013.00;;;8.55;100.00
62418;BME280;48456;54.242;10.280;2023-03-23T01:13:34;100012.09;;;8.56;100.00
62418;BME280;48456;54.242;10.280;2023-03-23T01:18:31;100012.09;;;8.56;100.00
62418;BME280;48456;54.242;10.280;2023-03-23T01:20:57;100016.50;;;8.57;100.00
62418;BME280;48456;54.242;10.280;2023-03-23T01:23:22;100018.28;;;8.55;100.00
62418;BME280;48456;54.242;10.280;2023-03-23T01:25:47;100019.16;;;8.54;100.00
62418;BME280;48456;54.242;10.280;2023-03-23T01:28:14;100008.59;;;8.52;100.00
62418;BME280;48456;54.242;10.280;2023-03-23T01:30:39;100003.34;;;8.51;100.00
62418;BME280;48456;54.242;10.280;2023-03-23T01:33:05;99995.44;;;8.49;100.00
62418;BME280;48456;54.242;10.280;2023-03-23T01:35:30;99988.44;;;8.45;100.00
62418;BME280;48456;54.242;10.280;2023-03-23T01:37:55;99973.53;;;8.42;100.00
62418;BME280;48456;54.242;10.280;2023-03-23T01:40:21;99975.31;;;8.40;100.00
62418;BME280;48456;54.242;10.280;2023-03-23T01:42:46;99968.31;;;8.39;100.00
62418;BME280;48456;54.242;10.280;2023-03-23T01:45:25;99948.97;;;8.39;100.00
62418;BME280;48456;54.242;10.280;2023-03-23T01:47:54;99951.63;;;8.39;100.00
62418;BME280;48456;54.242;10.280;2023-03-23T01:50:21;99950.72;;;8.38;100.00
62418;BME280;48456;54.242;10.280;2023-03-23T01:52:48;99948.09;;;8.37;100.00
62418;BME280;48456;54.242;10.280;2023-03-23T01:55:14;99952.47;;;8.41;100.00
62418;BME280;48456;54.242;10.280;2023-03-23T01:57:40;99953.34;;;8.41;100.00
62418;BME280;48456;54.242;10.280;2023-03-23T02:00:07;99950.72;;;8.41;100.00
62418;BME280;48456;54.242;10.280;2023-03-23T02:02:35;99940.19;;;8.40;100.00
62418;BME280;48456;54.242;10.280;2023-03-23T02:05:04;99934.91;;;8.38;100.00
62418;BME280;48456;54.242;10.280;2023-03-23T02:07:32;99924.38;;;8.38;100.00
62418;BME280;48456;54.242;10.280;2023-03-23T02:09:58;99925.28;;;8.37;100.00
62418;BME280;48456;54.242;10.280;2023-03-23T02:12:24;99924.38;;;8.40;100.00
62418;BME280;48456;54.242;10.280;2023-03-23T02:14:50;99915.59;;;8.39;100.00
62418;BME280;48456;54.242;10.280;2023-03-23T02:17:30;99916.47;;;8.38;100.00
62418;BME280;48456;54.242;10.280;2023-03-23T02:20:06;99913.84;;;8.37;100.00
62418;BME280;48456;54.242;10.280;2023-03-23T02:22:47;99925.28;;;8.36;100.00
62418;BME280;48456;54.242;10.280;2023-03-23T02:25:31;99925.31;;;8.32;100.00
62418;BME280;48456;54.242;10.280;2023-03-23T02:33:26;99910.50;;;8.17;100.00
62418;BME280;48456;54.242;10.280;2023-03-23T02:36:19;99888.59;;;8.12;100.00
62418;BME280;48456;54.242;10.280;2023-03-23T02:41:26;99892.16;;;8.06;100.00
62418;BME280;48456;54.242;10.280;2023-03-23T02:43:52;99886.91;;;8.05;100.00
62418;BME280;48456;54.242;10.280;2023-03-23T02:46:18;99878.16;;;8.01;100.00
62418;BME280;48456;54.242;10.280;2023-03-23T02:48:45;99875.53;;;8.00;100.00
62418;BME280;48456;54.242;10.280;2023-03-23T02:51:13;99879.97;;;7.95;100.00
62418;BME280;48456;54.242;10.280;2023-03-23T02:53:41;99874.75;;;7.90;100.00
62418;BME280;48456;54.242;10.280;2023-03-23T02:56:08;99881.78;;;7.89;100.00
62418;BME280;48456;54.242;10.280;2023-03-23T02:58:35;99894.97;;;7.85;100.00
62418;BME280;48456;54.242;10.280;2023-03-23T03:01:12;99901.13;;;7.84;100.00
62418;BME280;48456;54.242;10.280;2023-03-23T03:03:39;99908.16;;;7.82;100.00
62418;BME280;48456;54.242;10.280;2023-03-23T03:06:10;99888.88;;;7.83;100.00
62418;BME280;48456;54.242;10.280;2023-03-23T03:08:45;99886.22;;;7.84;100.00
62418;BME280;48456;54.242;10.280;2023-03-23T03:11:14;99878.31;;;7.84;100.00
62418;BME280;48456;54.242;10.280;2023-03-23T03:21:20;99835.31;;;7.82;100.00
62418;BME280;48456;54.242;10.280;2023-03-23T03:23:50;99855.53;;;7.78;100.00
62418;BME280;48456;54.242;10.280;2023-03-23T03:26:17;99856.44;;;7.76;100.00
62418;BME280;48456;54.242;10.280;2023-03-23T03:28:46;99835.38;;;7.76;100.00
62418;BME280;48456;54.242;10.280;2023-03-23T03:31:17;99823.09;;;7.75;100.00
62418;BME280;48456;54.242;10.280;2023-03-23T03:33:43;99814.34;;;7.73;100.00
62418;BME280;48456;54.242;10.280;2023-03-23T03:36:14;99811.72;;;7.71;100.00
62418;BME280;48456;54.242;10.280;2023-03-23T03:38:41;99793.28;;;7.70;100.00
62418;BME280;48456;54.242;10.280;2023-03-23T03:41:07;99774.88;;;7.70;100.00
62418;BME280;48456;54.242;10.280;2023-03-23T03:43:32;99800.38;;;7.63;100.00
62418;BME280;48456;54.242;10.280;2023-03-23T03:45:58;99844.28;;;7.56;100.00
62418;BME280;48456;54.242;10.280;2023-03-23T03:48:23;99892.56;;;7.55;100.00
62418;BME280;48456;54.242;10.280;2023-03-23T03:50:48;99894.31;;;7.56;100.00
62418;BME280;48456;54.242;10.280;2023-03-23T03:53:14;99903.09;;;7.57;100.00
62418;BME280;48456;54.242;10.280;2023-03-23T03:55:39;99897.84;;;7.53;100.00
62418;BME280;48456;54.242;10.280;2023-03-23T03:58:10;99894.34;;;7.50;100.00
62418;BME280;48456;54.242;10.280;2023-03-23T04:00:35;99903.16;;;7.46;100.00
62418;BME280;48456;54.242;10.280;2023-03-23T04:03:00;99904.91;;;7.45;100.00
62418;BME280;48456;54.242;10.280;2023-03-23T04:05:26;99901.38;;;7.45;100.00
62418;BME280;48456;54.242;10.280;2023-03-23T04:07:54;99902.25;;;7.47;100.00
62418;BME280;48456;54.242;10.280;2023-03-23T04:10:26;99888.22;;;7.48;100.00
62418;BME280;48456;54.242;10.280;2023-03-23T04:12:52;99882.94;;;7.48;100.00
62418;BME280;48456;54.242;10.280;2023-03-23T04:15:17;99877.69;;;7.46;100.00
62418;BME280;48456;54.242;10.280;2023-03-23T04:17:42;99871.56;;;7.46;100.00
62418;BME280;48456;54.242;10.280;2023-03-23T04:20:08;99853.16;;;7.46;100.00
62418;BME280;48456;54.242;10.280;2023-03-23T04:22:39;99850.53;;;7.44;100.00
62418;BME280;48456;54.242;10.280;2023-03-23T04:25:04;99849.66;;;7.44;100.00
62418;BME280;48456;54.242;10.280;2023-03-23T04:27:31;99850.56;;;7.39;100.00
62418;BME280;48456;54.242;10.280;2023-03-23T04:29:56;99862.84;;;7.37;100.00
62418;BME280;48456;54.242;10.280;2023-03-23T04:32:27;99854.97;;;7.36;100.00
62418;BME280;48456;54.242;10.280;2023-03-23T04:34:57;99829.56;;;7.33;100.00
62418;BME280;48456;54.242;10.280;2023-03-23T04:37:26;99824.31;;;7.30;100.00
62418;BME280;48456;54.242;10.280;2023-03-23T04:39:54;99810.28;;;7.28;100.00
62418;BME280;48456;54.242;10.280;2023-03-23T04:42:28;99814.69;;;7.24;100.00
62418;BME280;48456;54.242;10.280;2023-03-23T04:44:55;99819.06;;;7.25;100.00
62418;BME280;48456;54.242;10.280;2023-03-23T04:47:20;99817.31;;;7.24;100.00
62418;BME280;48456;54.242;10.280;2023-03-23T04:49:46;99814.69;;;7.24;100.00
62418;BME280;48456;54.242;10.280;2023-03-23T04:52:11;99809.44;;;7.23;100.00
62418;BME280;48456;54.242;10.280;2023-03-23T04:54:36;99810.34;;;7.22;100.00
62418;BME280;48456;54.242;10.280;2023-03-23T04:57:02;99808.59;;;7.21;100.00
62418;BME280;48456;54.242;10.280;2023-03-23T04:59:28;99801.56;;;7.21;100.00
62418;BME280;48456;54.242;10.280;2023-03-23T05:01:56;99796.34;;;7.18;100.00
62418;BME280;48456;54.242;10.280;2023-03-23T05:04:21;99791.03;;;7.21;100.00
62418;BME280;48456;54.242;10.280;2023-03-23T05:06:47;99803.34;;;7.18;100.00
62418;BME280;48456;54.242;10.280;2023-03-23T05:09:13;99801.59;;;7.18;100.00
62418;BME280;48456;54.242;10.280;2023-03-23T05:11:38;99804.22;;;7.17;100.00
62418;BME280;48456;54.242;10.280;2023-03-23T05:14:04;99802.44;;;7.19;100.00
62418;BME280;48456;54.242;10.280;2023-03-23T05:16:30;99798.06;;;7.22;100.00
62418;BME280;48456;54.242;10.280;2023-03-23T05:18:55;99796.28;;;7.23;100.00
62418;BME280;48456;54.242;10.280;2023-03-23T05:21:22;99803.28;;;7.25;100.00
62418;BME280;48456;54.242;10.280;2023-03-23T05:23:48;99796.28;;;7.27;100.00
62418;BME280;48456;54.242;10.280;2023-03-23T05:26:19;99795.38;;;7.28;100.00
62418;BME280;48456;54.242;10.280;2023-03-23T05:28:45;99799.75;;;7.31;100.00
62418;BME280;48456;54.242;10.280;2023-03-23T05:31:10;99797.09;;;7.36;100.00
62418;BME280;48456;54.242;10.280;2023-03-23T05:33:36;99796.19;;;7.41;100.00
62418;BME280;48456;54.242;10.280;2023-03-23T05:36:01;99787.34;;;7.47;100.00
62418;BME280;48456;54.242;10.280;2023-03-23T05:38:28;99787.28;;;7.55;100.00
62418;BME280;48456;54.242;10.280;2023-03-23T05:40:54;99786.31;;;7.65;100.00
62418;BME280;48456;54.242;10.280;2023-03-23T05:43:19;99780.13;;;7.73;100.00
62418;BME280;48456;54.242;10.280;2023-03-23T05:45:46;99776.56;;;7.80;100.00
62418;BME280;48456;54.242;10.280;2023-03-23T05:48:11;99776.47;;;7.86;100.00
62418;BME280;48456;54.242;10.280;2023-03-23T05:50:37;99778.16;;;7.97;100.00
62418;BME280;48456;54.242;10.280;2023-03-23T05:53:02;99778.91;;;8.06;100.00
62418;BME280;48456;54.242;10.280;2023-03-23T05:55:29;99773.56;;;8.14;100.00
62418;BME280;48456;54.242;10.280;2023-03-23T05:57:54;99769.94;;;8.23;100.00
62418;BME280;48456;54.242;10.280;2023-03-23T06:00:19;99777.78;;;8.29;100.00
62418;BME280;48456;54.242;10.280;2023-03-23T06:02:48;99768.94;;;8.35;100.00
62418;BME280;48456;54.242;10.280;2023-03-23T06:05:13;99760.97;;;8.41;100.00
62418;BME280;48456;54.242;10.280;2023-03-23T06:07:40;99761.75;;;8.50;100.00
62418;BME280;48456;54.242;10.280;2023-03-23T06:10:06;99754.66;;;8.56;100.00
62418;BME280;48456;54.242;10.280;2023-03-23T06:12:32;99754.53;;;8.64;100.00
62418;BME280;48456;54.242;10.280;2023-03-23T06:14:57;99755.38;;;8.69;100.00
62418;BME280;48456;54.242;10.280;2023-03-23T06:17:24;99744.78;;;8.73;100.00
62418;BME280;48456;54.242;10.280;2023-03-23T06:19:49;99750.88;;;8.78;100.00
62418;BME280;48456;54.242;10.280;2023-03-23T06:22:16;99745.47;;;8.86;100.00
62418;BME280;48456;54.242;10.280;2023-03-23T06:24:41;99747.06;;;8.96;100.00
62418;BME280;48456;54.242;10.280;2023-03-23T06:27:07;99754.91;;;9.04;100.00
62418;BME280;48456;54.242;10.280;2023-03-23T06:29:34;99759.25;;;9.08;100.00
62418;BME280;48456;54.242;10.280;2023-03-23T06:32:00;99760.94;;;9.10;100.00
62418;BME280;48456;54.242;10.280;2023-03-23T06:34:27;99749.53;;;9.10;100.00
62418;BME280;48456;54.242;10.280;2023-03-23T06:36:52;99759.13;;;9.14;100.00
62418;BME280;48456;54.242;10.280;2023-03-23T06:39:18;99757.25;;;9.21;100.00
62418;BME280;48456;54.242;10.280;2023-03-23T06:41:44;99765.13;;;9.26;100.00
62418;BME280;48456;54.242;10.280;2023-03-23T06:44:09;99756.25;;;9.30;100.00
62418;BME280;48456;54.242;10.280;2023-03-23T06:46:38;99762.31;;;9.36;100.00
62418;BME280;48456;54.242;10.280;2023-03-23T06:49:04;99760.38;;;9.48;100.00
62418;BME280;48456;54.242;10.280;2023-03-23T06:51:30;99753.16;;;9.58;100.00
62418;BME280;48456;54.242;10.280;2023-03-23T06:53:55;99763.72;;;9.58;100.00
62418;BME280;48456;54.242;10.280;2023-03-23T06:56:22;99755.78;;;9.58;100.00
62418;BME280;48456;54.242;10.280;2023-03-23T06:58:47;99753.16;;;9.58;100.00
62418;BME280;48456;54.242;10.280;2023-03-23T07:01:13;99763.72;;;9.58;100.00
62418;BME280;48456;54.242;10.280;2023-03-23T07:03:40;99765.50;;;9.57;100.00
62418;BME280;48456;54.242;10.280;2023-03-23T07:06:06;99767.22;;;9.58;100.00
62418;BME280;48456;54.242;10.280;2023-03-23T07:08:32;99745.25;;;9.56;100.00
62418;BME280;48456;54.242;10.280;2023-03-23T07:10:57;99757.56;;;9.59;100.00
62418;BME280;48456;54.242;10.280;2023-03-23T07:13:22;99765.53;;;9.56;100.00
62418;BME280;48456;54.242;10.280;2023-03-23T07:15:48;99753.22;;;9.55;100.00
62418;BME280;48456;54.242;10.280;2023-03-23T07:18:14;99763.81;;;9.52;100.00
62418;BME280;48456;54.242;10.280;2023-03-23T07:20:40;99763.09;;;9.43;100.00
62418;BME280;48456;54.242;10.280;2023-03-23T07:23:05;99771.97;;;9.38;100.00
62418;BME280;48456;54.242;10.280;2023-03-23T07:25:31;99765.91;;;9.32;100.00
62418;BME280;48456;54.242;10.280;2023-03-23T07:27:58;99773.03;;;9.27;100.00
62418;BME280;48456;54.242;10.280;2023-03-23T07:30:23;99765.16;;;9.24;100.00
62418;BME280;48456;54.242;10.280;2023-03-23T07:32:49;99763.38;;;9.25;100.00
62418;BME280;48456;54.242;10.280;2023-03-23T07:35:14;99760.75;;;9.25;100.00
62418;BME280;48456;54.242;10.280;2023-03-23T07:37:39;99764.25;;;9.23;100.00
62418;BME280;48456;54.242;10.280;2023-03-23T07:40:05;99763.44;;;9.21;100.00
62418;BME280;48456;54.242;10.280;2023-03-23T07:42:33;99794.16;;;9.24;100.00
62418;BME280;48456;54.242;10.280;2023-03-23T07:44:59;99777.41;;;9.27;100.00
62418;BME280;48456;54.242;10.280;2023-03-23T07:47:24;99780.81;;;9.35;100.00
62418;BME280;48456;54.242;10.280;2023-03-23T07:49:49;99821.38;;;9.28;100.00
62418;BME280;48456;54.242;10.280;2023-03-23T07:52:15;99724.78;;;9.17;100.00
62418;BME280;48456;54.242;10.280;2023-03-23T07:54:40;99809.13;;;9.23;100.00
62418;BME280;48456;54.242;10.280;2023-03-23T07:57:05;99949.91;;;9.21;100.00
62418;BME280;48456;54.242;10.280;2023-03-23T07:59:31;99949.03;;;9.20;100.00
62418;BME280;48456;54.242;10.280;2023-03-23T08:01:56;99934.19;;;9.10;100.00
62418;BME280;48456;54.242;10.280;2023-03-23T08:04:23;99951.97;;;8.95;100.00
62418;BME280;48456;54.242;10.280;2023-03-23T08:06:48;99970.00;;;9.31;100.00
62418;BME280;48456;54.242;10.280;2023-03-23T08:09:14;99955.66;;;9.51;100.00
62418;BME280;48456;54.242;10.280;2023-03-23T08:11:40;99949.38;;;8.89;100.00
62418;BME280;48456;54.242;10.280;2023-03-23T08:14:05;99960.09;;;9.51;100.00
62418;BME280;48456;54.242;10.280;2023-03-23T08:16:31;99971.47;;;9.54;100.00
62418;BME280;48456;54.242;10.280;2023-03-23T08:18:56;99957.44;;;9.51;100.00
62418;BME280;48456;54.242;10.280;2023-03-23T08:21:22;99972.22;;;9.64;100.00
62418;BME280;48456;54.242;10.280;2023-03-23T08:23:47;99965.09;;;9.69;100.00
62418;BME280;48456;54.242;10.280;2023-03-23T08:26:12;99956.09;;;9.84;100.00
62418;BME280;48456;54.242;10.280;2023-03-23T08:28:40;99952.56;;;9.84;100.00
62418;BME280;48456;54.242;10.280;2023-03-23T08:31:06;99952.47;;;9.92;100.00
62418;BME280;48456;54.242;10.280;2023-03-23T08:33:32;99940.09;;;9.94;100.00
62418;BME280;48456;54.242;10.280;2023-03-23T08:35:58;99958.72;;;9.86;100.00
62418;BME280;48456;54.242;10.280;2023-03-23T08:38:24;99950.03;;;9.78;100.00
62418;BME280;48456;54.242;10.280;2023-03-23T08:40:49;99949.91;;;9.84;100.00
62418;BME280;48456;54.242;10.280;2023-03-23T08:43:15;99950.38;;;10.12;100.00
62418;BME280;48456;54.242;10.280;2023-03-23T08:45:41;99953.53;;;10.35;100.00
62418;BME280;48456;54.242;10.280;2023-03-23T08:48:06;99955.34;;;10.31;100.00
62418;BME280;48456;54.242;10.280;2023-03-23T08:50:32;99988.34;;;10.63;100.00
62418;BME280;48456;54.242;10.280;2023-03-23T08:52:58;100001.19;;;10.85;100.00
62418;BME280;48456;54.242;10.280;2023-03-23T08:55:23;99996.59;;;10.95;100.00
62418;BME280;48456;54.242;10.280;2023-03-23T08:57:49;99980.81;;;10.89;100.00
62418;BME280;48456;54.242;10.280;2023-03-23T09:00:16;99976.25;;;10.48;100.00
62418;BME280;48456;54.242;10.280;2023-03-23T09:02:45;99984.22;;;10.44;100.00
62418;BME280;48456;54.242;10.280;2023-03-23T09:05:12;99974.72;;;10.33;100.00
62418;BME280;48456;54.242;10.280;2023-03-23T09:07:39;99981.25;;;10.64;100.00
62418;BME280;48456;54.242;10.280;2023-03-23T09:10:05;99981.41;;;10.56;100.00
62418;BME280;48456;54.242;10.280;2023-03-23T09:12:31;100002.25;;;10.73;100.00
62418;BME280;48456;54.242;10.280;2023-03-23T09:14:56;100005.31;;;11.00;100.00
62418;BME280;48456;54.242;10.280;2023-03-23T09:17:21;99994.81;;;10.94;100.00
62418;BME280;48456;54.242;10.280;2023-03-23T09:19:47;99980.44;;;11.09;100.00
62418;BME280;48456;54.242;10.280;2023-03-23T09:22:12;99992.91;;;11.02;100.00
62418;BME280;48456;54.242;10.280;2023-03-23T09:24:37;99988.00;;;11.29;100.00
62418;BME280;48456;54.242;10.280;2023-03-23T09:27:03;99983.78;;;11.19;100.00
62418;BME280;48456;54.242;10.280;2023-03-23T09:29:29;99985.59;;;11.17;100.00
62418;BME280;48456;54.242;10.280;2023-03-23T09:31:55;100004.00;;;11.22;100.00
62418;BME280;48456;54.242;10.280;2023-03-23T09:34:21;99984.72;;;11.15;100.00
62418;BME280;48456;54.242;10.280;2023-03-23T09:36:47;100009.44;;;11.60;100.00
62418;BME280;48456;54.242;10.280;2023-03-23T09:39:13;99999.53;;;11.25;100.00
62418;BME280;48456;54.242;10.280;2023-03-23T09:44:22;99996.88;;;11.27;100.00
62418;BME280;48456;54.242;10.280;2023-03-23T09:49:40;100018.66;;;11.40;100.00
62418;BME280;48456;54.242;10.280;2023-03-23T09:54:34;100007.19;;;11.39;100.00
62418;BME280;48456;54.242;10.280;2023-03-23T09:57:04;100017.78;;;11.39;100.00
62418;BME280;48456;54.242;10.280;2023-03-23T10:07:16;99896.91;;;10.94;100.00
62418;BME280;48456;54.242;10.280;2023-03-23T10:09:42;99907.88;;;10.75;100.00
62418;BME280;48456;54.242;10.280;2023-03-23T10:14:55;99910.00;;;10.56;100.00
62418;BME280;48456;54.242;10.280;2023-03-23T10:17:29;99914.66;;;10.42;100.00
62418;BME280;48456;54.242;10.280;2023-03-23T10:20:03;99914.53;;;10.51;100.00
62418;BME280;48456;54.242;10.280;2023-03-23T10:22:36;99911.78;;;10.56;100.00
62418;BME280;48456;54.242;10.280;2023-03-23T10:33:11;99928.75;;;10.40;100.00
62418;BME280;48456;54.242;10.280;2023-03-23T10:35:42;99927.25;;;10.25;100.00
62418;BME280;48456;54.242;10.280;2023-03-23T10:38:13;99930.88;;;10.20;100.00
62418;BME280;48456;54.242;10.280;2023-03-23T10:40:45;99938.09;;;10.10;100.00
62418;BME280;48456;54.242;10.280;2023-03-23T10:43:13;99920.38;;;10.17;100.00
62418;BME280;48456;54.242;10.280;2023-03-23T10:45:38;99936.09;;;10.24;100.00
62418;BME280;48456;54.242;10.280;2023-03-23T10:48:08;99934.31;;;10.25;100.00
62418;BME280;48456;54.242;10.280;2023-03-23T10:50:36;99943.25;;;10.16;100.00
62418;BME280;48456;54.242;10.280;2023-03-23T10:53:05;99949.53;;;10.10;100.00
62418;BME280;48456;54.242;10.280;2023-03-23T10:55:39;99952.16;;;10.10;100.00
62418;BME280;48456;54.242;10.280;2023-03-23T10:58:06;99962.31;;;10.37;100.00
62418;BME280;48456;54.242;10.280;2023-03-23T11:00:32;99956.91;;;10.45;100.00
62418;BME280;48456;54.242;10.280;2023-03-23T11:05:37;99977.03;;;10.55;100.00
62418;BME280;48456;54.242;10.280;2023-03-23T11:08:10;99981.38;;;10.58;100.00
62418;BME280;48456;54.242;10.280;2023-03-23T11:10:38;99982.88;;;10.74;100.00
62418;BME280;48456;54.242;10.280;2023-03-23T11:13:04;99983.97;;;11.08;100.00
62418;BME280;48456;54.242;10.280;2023-03-23T11:15:35;99991.81;;;11.98;100.00
62418;BME280;48456;54.242;10.280;2023-03-23T11:18:44;99971.44;;;12.73;100.00
62418;BME280;48456;54.242;10.280;2023-03-23T11:20:55;99982.56;;;12.53;100.00
62418;BME280;48456;54.242;10.280;2023-03-23T11:23:28;99984.69;;;13.06;100.00
62418;BME280;48456;54.242;10.280;2023-03-23T11:25:56;99980.78;;;13.51;100.00
62418;BME280;48456;54.242;10.280;2023-03-23T11:28:21;99999.50;;;12.82;100.00
62418;BME280;48456;54.242;10.280;2023-03-23T11:30:52;100006.63;;;11.66;100.00
62418;BME280;48456;54.242;10.280;2023-03-23T11:33:18;100007.53;;;10.75;100.00
62418;BME280;48456;54.242;10.280;2023-03-23T11:35:44;100014.50;;;10.22;100.00
62418;BME280;48456;54.242;10.280;2023-03-23T11:38:18;100014.81;;;10.04;100.00
62418;BME280;48456;54.242;10.280;2023-03-23T11:40:51;100013.28;;;9.85;100.00
62418;BME280;48456;54.242;10.280;2023-03-23T11:43:22;100012.06;;;10.68;100.00
62418;BME280;48456;54.242;10.280;2023-03-23T11:48:35;100022.88;;;11.50;100.00
62418;BME280;48456;54.242;10.280;2023-03-23T11:51:04;100024.41;;;12.41;100.00
62418;BME280;48456;54.242;10.280;2023-03-23T11:58:40;99937.44;;;14.07;100.00
62418;BME280;48456;54.242;10.280;2023-03-23T12:01:11;99954.38;;;14.31;100.00
62418;BME280;48456;54.242;10.280;2023-03-23T12:08:55;99953.78;;;13.94;100.00
62418;BME280;48456;54.242;10.280;2023-03-23T12:11:42;99952.56;;;14.06;100.00
62418;BME280;48456;54.242;10.280;2023-03-23T12:19:14;99957.88;;;16.05;100.00
62418;BME280;48456;54.242;10.280;2023-03-23T12:29:39;99949.69;;;16.31;100.00
62418;BME280;48456;54.242;10.280;2023-03-23T12:32:22;99942.00;;;16.45;100.00
62418;BME280;48456;54.242;10.280;2023-03-23T12:48:12;99936.81;;;17.03;100.00
62418;BME280;48456;54.242;10.280;2023-03-23T12:55:38;99948.03;;;16.28;100.00
62418;BME280;48456;54.242;10.280;2023-03-23T12:58:12;99942.09;;;16.21;100.00
62418;BME280;48456;54.242;10.280;2023-03-23T13:03:13;99946.66;;;15.01;100.00
62418;BME280;48456;54.242;10.280;2023-03-23T13:05:54;99943.31;;;14.71;100.00
62418;BME280;48456;54.242;10.280;2023-03-23T13:08:33;99940.25;;;15.07;100.00
62418;BME280;48456;54.242;10.280;2023-03-23T13:11:03;99937.06;;;14.72;100.00
62418;BME280;48456;54.242;10.280;2023-03-23T13:13:48;99942.69;;;14.62;100.00
62418;BME280;48456;54.242;10.280;2023-03-23T13:18:49;99945.97;;;14.43;100.00
62418;BME280;48456;54.242;10.280;2023-03-23T13:21:23;99943.56;;;15.62;100.00
62418;BME280;48456;54.242;10.280;2023-03-23T13:23:53;99943.06;;;16.41;100.00
62418;BME280;48456;54.242;10.280;2023-03-23T13:26:22;99945.41;;;17.31;100.00
62418;BME280;48456;54.242;10.280;2023-03-23T13:29:00;99947.94;;;17.72;100.00
62418;BME280;48456;54.242;10.280;2023-03-23T13:31:30;99935.16;;;18.16;100.00
62418;BME280;48456;54.242;10.280;2023-03-23T13:36:43;99933.34;;;17.97;100.00
62418;BME280;48456;54.242;10.280;2023-03-23T13:39:19;99931.94;;;18.09;100.00
62418;BME280;48456;54.242;10.280;2023-03-23T13:41:46;99929.41;;;17.87;100.00
62418;BME280;48456;54.242;10.280;2023-03-23T13:44:25;99931.38;;;17.06;100.00
62418;BME280;48456;54.242;10.280;2023-03-23T13:47:04;99944.91;;;16.81;100.00
62418;BME280;48456;54.242;10.280;2023-03-23T13:49:31;99929.63;;;16.84;100.00
62418;BME280;48456;54.242;10.280;2023-03-23T13:54:40;99941.19;;;16.00;100.00
62418;BME280;48456;54.242;10.280;2023-03-23T13:59:54;99932.34;;;16.20;100.00
62418;BME280;48456;54.242;10.280;2023-03-23T14:02:31;99944.78;;;16.42;100.00
62418;BME280;48456;54.242;10.280;2023-03-23T14:05:07;99953.06;;;16.36;100.00
62418;BME280;48456;54.242;10.280;2023-03-23T14:07:49;99948.81;;;16.09;100.00
62418;BME280;48456;54.242;10.280;2023-03-23T14:10:15;99954.69;;;15.95;100.00
62418;BME280;48456;54.242;10.280;2023-03-23T14:12:41;99973.13;;;15.78;100.00
62418;BME280;48456;54.242;10.280;2023-03-23T14:15:13;99965.50;;;15.68;100.00
62418;BME280;48456;54.242;10.280;2023-03-23T14:17:43;99959.78;;;15.31;100.00
62418;BME280;48456;54.242;10.280;2023-03-23T14:20:09;99970.53;;;15.52;100.00
62418;BME280;48456;54.242;10.280;2023-03-23T14:22:44;99968.34;;;15.40;100.00
62418;BME280;48456;54.242;10.280;2023-03-23T14:25:17;99960.13;;;15.46;100.00
62418;BME280;48456;54.242;10.280;2023-03-23T14:27:43;99959.75;;;16.02;100.00
62418;BME280;48456;54.242;10.280;2023-03-23T14:30:13;99953.81;;;16.60;100.00
62418;BME280;48456;54.242;10.280;2023-03-23T14:32:38;99956.00;;;16.71;100.00
62418;BME280;48456;54.242;10.280;2023-03-23T14:35:05;99957.88;;;16.69;100.00